createdAt,value
2022-11-06T00:00:31.950Z,19.10
2022-11-06T00:03:01.312Z,21.00
2022-11-06T00:05:48.239Z,19.00
2022-11-06T00:08:23.613Z,20.70
2022-11-06T00:10:51.718Z,21.20
2022-11-06T00:13:19.876Z,18.20
2022-11-06T00:15:47.525Z,21.00
2022-11-06T00:18:15.663Z,22.70
2022-11-06T00:20:46.533Z,24.40
2022-11-06T00:23:14.202Z,22.20
2022-11-06T00:25:42.513Z,19.00
2022-11-06T00:28:11.026Z,16.90
2022-11-06T00:30:39.398Z,16.60
2022-11-06T00:33:08.093Z,16.50
2022-11-06T00:35:38.321Z,17.40
2022-11-06T00:38:06.855Z,18.00
2022-11-06T00:40:34.823Z,16.60
2022-11-06T00:43:02.707Z,17.80
2022-11-06T00:45:30.381Z,18.90
2022-11-06T00:47:58.188Z,17.40
2022-11-06T00:50:26.535Z,16.10
2022-11-06T00:52:55.286Z,16.70
2022-11-06T00:55:23.373Z,16.70
2022-11-06T00:57:51.552Z,14.50
2022-11-06T01:00:20.557Z,15.40
2022-11-06T01:02:49.884Z,16.20
2022-11-06T01:05:18.315Z,16.50
2022-11-06T01:07:46.583Z,16.00
2022-11-06T01:10:15.394Z,19.00
2022-11-06T01:12:43.920Z,18.60
2022-11-06T01:15:12.059Z,17.80
2022-11-06T01:17:39.833Z,18.20
2022-11-06T01:22:40.191Z,22.70
2022-11-06T01:25:08.769Z,19.70
2022-11-06T01:27:37.135Z,24.70
2022-11-06T01:30:05.773Z,28.70
2022-11-06T01:32:34.927Z,30.10
2022-11-06T01:35:02.676Z,20.80
2022-11-06T01:37:31.243Z,17.10
2022-11-06T01:39:58.903Z,16.30
2022-11-06T01:42:26.683Z,15.50
2022-11-06T01:45:15.886Z,15.30
2022-11-06T01:47:43.813Z,14.00
2022-11-06T01:50:14.545Z,14.20
2022-11-06T01:52:44.761Z,14.40
2022-11-06T01:55:21.225Z,14.20
2022-11-06T01:57:49.012Z,14.50
2022-11-06T02:00:17.707Z,14.50
2022-11-06T02:02:45.984Z,14.40
2022-11-06T02:05:14.085Z,14.90
2022-11-06T02:07:43.558Z,14.70
2022-11-06T02:10:11.722Z,15.00
2022-11-06T02:12:39.920Z,14.50
2022-11-06T02:15:35.907Z,14.30
2022-11-06T02:18:14.302Z,14.70
2022-11-06T02:21:20.258Z,13.80
2022-11-06T02:23:53.789Z,14.90
2022-11-06T02:26:50.138Z,15.30
2022-11-06T02:29:38.536Z,14.30
2022-11-06T02:32:13.944Z,15.20
2022-11-06T02:34:44.396Z,13.20
2022-11-06T02:37:16.547Z,13.20
2022-11-06T02:39:47.111Z,14.30
2022-11-06T02:42:18.937Z,14.30
2022-11-06T02:44:50.344Z,14.00
2022-11-06T02:47:19.948Z,14.00
2022-11-06T02:52:41.330Z,13.90
2022-11-06T02:55:26.830Z,14.30
2022-11-06T02:58:03.452Z,14.60
2022-11-06T03:00:33.724Z,13.70
2022-11-06T03:03:07.105Z,13.00
2022-11-06T03:05:39.500Z,13.90
2022-11-06T03:08:28.769Z,12.70
2022-11-06T03:11:18.354Z,12.80
2022-11-06T03:13:59.168Z,12.50
2022-11-06T03:16:36.053Z,13.50
2022-11-06T03:19:19.163Z,13.00
2022-11-06T03:22:07.947Z,12.70
2022-11-06T03:24:57.540Z,11.90
2022-11-06T03:30:16.915Z,12.50
2022-11-06T03:32:57.663Z,12.50
2022-11-06T03:35:35.205Z,13.20
2022-11-06T03:38:10.829Z,13.20
2022-11-06T03:40:44.675Z,12.70
2022-11-06T03:43:16.199Z,14.30
2022-11-06T03:45:45.607Z,14.70
2022-11-06T03:48:19.859Z,13.50
2022-11-06T03:50:49.688Z,13.00
2022-11-06T03:53:22.854Z,12.30
2022-11-06T03:55:56.979Z,12.80
2022-11-06T03:58:30.197Z,13.60
2022-11-06T04:01:01.031Z,13.80
2022-11-06T04:03:35.007Z,12.20
2022-11-06T04:06:10.854Z,12.80
2022-11-06T04:08:58.181Z,13.20
2022-11-06T04:11:47.449Z,12.40
2022-11-06T04:14:18.164Z,12.50
2022-11-06T04:16:59.006Z,13.40
2022-11-06T04:19:26.907Z,13.90
2022-11-06T04:22:04.209Z,12.20
2022-11-06T04:24:53.362Z,12.30
2022-11-06T04:28:05.927Z,14.20
2022-11-06T04:30:57.271Z,13.80
2022-11-06T04:34:05.500Z,13.90
2022-11-06T04:36:59.799Z,12.40
2022-11-06T04:40:09.460Z,13.10
2022-11-06T04:42:49.722Z,12.20
2022-11-06T04:45:27.742Z,12.40
2022-11-06T04:47:56.156Z,11.90
2022-11-06T04:50:26.549Z,12.50
2022-11-06T04:52:55.813Z,14.50
2022-11-06T04:57:51.750Z,13.60
2022-11-06T05:00:19.631Z,13.10
2022-11-06T05:02:47.638Z,13.40
2022-11-06T05:05:15.471Z,13.20
2022-11-06T05:07:43.109Z,12.40
2022-11-06T05:10:10.898Z,13.40
2022-11-06T05:12:38.826Z,12.60
2022-11-06T05:15:07.146Z,12.40
2022-11-06T05:17:36.599Z,11.80
2022-11-06T05:20:05.866Z,12.40
2022-11-06T05:22:52.136Z,12.50
2022-11-06T05:25:20.054Z,12.30
2022-11-06T05:27:47.749Z,13.10
2022-11-06T05:30:15.510Z,11.20
2022-11-06T05:32:43.873Z,13.50
2022-11-06T05:35:11.529Z,13.50
2022-11-06T05:37:39.233Z,13.50
2022-11-06T05:40:08.540Z,13.00
2022-11-06T05:42:40.369Z,12.60
2022-11-06T05:45:09.207Z,13.10
2022-11-06T05:47:40.491Z,13.90
2022-11-06T05:50:10.045Z,13.10
2022-11-06T05:52:37.933Z,13.70
2022-11-06T05:55:11.628Z,13.60
2022-11-06T05:57:42.966Z,14.70
2022-11-06T06:00:12.536Z,12.70
2022-11-06T06:02:44.130Z,12.80
2022-11-06T06:05:12.072Z,12.60
2022-11-06T06:07:39.778Z,14.00
2022-11-06T06:10:08.569Z,14.30
2022-11-06T06:12:36.290Z,12.70
2022-11-06T06:15:05.671Z,12.60
2022-11-06T06:17:34.160Z,12.10
2022-11-06T06:20:02.110Z,12.20
2022-11-06T06:22:29.779Z,13.70
2022-11-06T06:24:57.943Z,11.30
2022-11-06T06:27:27.598Z,10.30
2022-11-06T06:29:55.322Z,9.70
2022-11-06T06:32:23.386Z,10.10
2022-11-06T06:34:51.153Z,9.60
2022-11-06T06:37:20.171Z,9.90
2022-11-06T06:39:48.691Z,10.00
2022-11-06T06:42:16.387Z,9.50
2022-11-06T06:44:44.134Z,10.90
2022-11-06T06:47:12.095Z,10.30
2022-11-06T06:49:39.855Z,10.30
2022-11-06T06:52:07.892Z,10.60
2022-11-06T06:54:36.033Z,10.10
2022-11-06T06:57:04.497Z,9.90
2022-11-06T06:59:32.192Z,9.80
2022-11-06T07:02:00.329Z,11.10
2022-11-06T07:04:28.039Z,10.20
2022-11-06T07:06:56.186Z,10.10
2022-11-06T07:09:24.265Z,9.20
2022-11-06T07:11:51.944Z,9.70
2022-11-06T07:14:19.664Z,10.50
2022-11-06T07:16:53.472Z,10.10
2022-11-06T07:19:21.803Z,10.40
2022-11-06T07:21:53.692Z,9.20
2022-11-06T07:24:21.423Z,9.10
2022-11-06T07:26:49.889Z,9.80
2022-11-06T07:29:17.853Z,9.30
2022-11-06T07:31:45.547Z,9.00
2022-11-06T07:34:13.309Z,9.90
2022-11-06T07:36:41.375Z,9.00
2022-11-06T07:39:09.122Z,8.80
2022-11-06T07:41:37.874Z,9.20
2022-11-06T07:44:05.992Z,9.60
2022-11-06T07:46:33.823Z,9.20
2022-11-06T07:49:01.881Z,7.60
2022-11-06T07:51:29.808Z,8.10
2022-11-06T07:53:57.608Z,9.20
2022-11-06T07:56:25.317Z,8.30
2022-11-06T07:58:53.161Z,8.00
2022-11-06T08:01:21.236Z,8.50
2022-11-06T08:03:49.256Z,7.70
2022-11-06T08:06:17.283Z,7.80
2022-11-06T08:08:45.027Z,7.50
2022-11-06T08:11:13.244Z,7.60
2022-11-06T08:13:41.356Z,7.30
2022-11-06T08:16:11.638Z,7.40
2022-11-06T08:18:40.299Z,7.20
2022-11-06T08:21:08.293Z,6.90
2022-11-06T08:23:36.657Z,7.00
2022-11-06T08:26:05.918Z,7.00
2022-11-06T08:28:34.675Z,6.80
2022-11-06T08:31:09.244Z,6.40
2022-11-06T08:33:38.485Z,7.80
2022-11-06T08:36:08.396Z,7.40
2022-11-06T08:38:36.912Z,7.20
2022-11-06T08:41:09.528Z,7.60
2022-11-06T08:43:37.885Z,7.00
2022-11-06T08:46:08.360Z,6.90
2022-11-06T08:48:36.276Z,7.80
2022-11-06T08:51:05.407Z,7.90
2022-11-06T08:56:04.359Z,7.80
2022-11-06T08:58:32.108Z,6.40
2022-11-06T09:00:59.936Z,5.70
2022-11-06T09:03:27.680Z,5.90
2022-11-06T09:05:55.603Z,6.50
2022-11-06T09:08:24.300Z,6.10
2022-11-06T09:10:57.222Z,5.00
2022-11-06T09:13:26.568Z,4.90
2022-11-06T09:15:54.248Z,5.00
2022-11-06T09:18:21.903Z,5.40
2022-11-06T09:20:49.906Z,4.60
2022-11-06T09:23:17.650Z,4.40
2022-11-06T09:25:45.544Z,4.00
2022-11-06T09:28:13.310Z,5.30
2022-11-06T09:30:40.979Z,5.40
2022-11-06T09:33:13.297Z,5.30
2022-11-06T09:35:41.686Z,5.10
2022-11-06T09:38:13.547Z,5.10
2022-11-06T09:40:52.045Z,5.00
2022-11-06T09:43:58.095Z,5.20
2022-11-06T09:46:26.681Z,5.30
2022-11-06T09:49:03.008Z,5.40
2022-11-06T09:51:40.252Z,4.60
2022-11-06T09:54:24.163Z,4.90
2022-11-06T09:56:58.822Z,4.30
2022-11-06T09:59:26.916Z,4.70
2022-11-06T10:01:58.294Z,4.90
2022-11-06T10:04:38.207Z,4.60
2022-11-06T10:07:28.743Z,5.10
2022-11-06T10:09:57.595Z,4.50
2022-11-06T10:12:31.148Z,4.80
2022-11-06T10:15:36.716Z,4.80
2022-11-06T10:18:31.210Z,5.00
2022-11-06T10:21:11.670Z,4.70
2022-11-06T10:23:51.189Z,5.10
2022-11-06T10:26:22.804Z,5.10
2022-11-06T10:29:15.809Z,5.00
2022-11-06T10:31:56.833Z,4.60
2022-11-06T10:34:34.698Z,5.50
2022-11-06T10:37:08.766Z,4.70
2022-11-06T10:39:37.127Z,5.20
2022-11-06T10:42:14.930Z,4.20
2022-11-06T10:44:58.699Z,3.80
2022-11-06T10:47:34.309Z,3.40
2022-11-06T10:50:11.432Z,3.50
2022-11-06T10:53:01.152Z,3.50
2022-11-06T10:55:56.689Z,3.00
2022-11-06T10:58:31.417Z,3.00
2022-11-06T11:01:02.494Z,2.80
2022-11-06T11:03:36.956Z,3.30
2022-11-06T11:06:05.471Z,3.30
2022-11-06T11:08:45.141Z,3.90
2022-11-06T11:11:15.597Z,4.10
2022-11-06T11:13:46.604Z,3.40
2022-11-06T11:16:20.227Z,3.00
2022-11-06T11:18:49.154Z,3.20
2022-11-06T11:21:22.919Z,3.20
2022-11-06T11:24:11.242Z,3.10
2022-11-06T11:26:48.083Z,3.10
2022-11-06T11:29:29.374Z,3.60
2022-11-06T11:32:01.537Z,3.30
2022-11-06T11:34:32.744Z,3.10
2022-11-06T11:37:08.174Z,3.30
2022-11-06T11:39:40.553Z,5.20
2022-11-06T11:42:29.632Z,3.60
2022-11-06T11:45:09.630Z,3.20
2022-11-06T11:47:40.506Z,3.50
2022-11-06T11:50:33.313Z,3.00
2022-11-06T11:53:22.143Z,2.30
2022-11-06T11:55:53.057Z,2.40
2022-11-06T11:58:25.972Z,2.20
2022-11-06T12:01:04.387Z,2.20
2022-11-06T12:03:38.114Z,2.30
2022-11-06T12:06:12.009Z,2.60
2022-11-06T12:08:46.363Z,2.40
2022-11-06T12:11:20.704Z,2.10
2022-11-06T12:14:27.606Z,2.80
2022-11-06T12:17:03.829Z,2.30
2022-11-06T12:19:36.131Z,2.80
2022-11-06T12:22:12.246Z,2.10
2022-11-06T12:24:56.834Z,2.00
2022-11-06T12:27:46.969Z,2.30
2022-11-06T12:30:18.238Z,2.00
2022-11-06T12:32:54.436Z,2.10
2022-11-06T12:35:28.920Z,2.00
2022-11-06T12:38:04.393Z,2.40
2022-11-06T12:40:38.046Z,2.10
2022-11-06T12:43:30.168Z,2.10
2022-11-06T12:46:04.130Z,2.20
2022-11-06T12:48:57.210Z,2.40
2022-11-06T12:51:51.898Z,2.10
2022-11-06T12:54:44.505Z,1.70
2022-11-06T12:57:27.553Z,1.70
2022-11-06T13:00:13.830Z,1.90
2022-11-06T13:03:12.205Z,2.00
2022-11-06T13:06:12.026Z,2.00
2022-11-06T13:08:59.070Z,2.10
2022-11-06T13:11:38.998Z,2.00
2022-11-06T13:14:27.944Z,1.80
2022-11-06T13:20:04.950Z,1.50
2022-11-06T13:25:20.080Z,1.80
2022-11-06T13:28:17.021Z,1.80
2022-11-06T13:30:45.661Z,1.90
2022-11-06T13:33:36.486Z,2.00
2022-11-06T13:36:06.667Z,1.60
2022-11-06T13:38:40.869Z,1.80
2022-11-06T13:41:21.347Z,2.00
2022-11-06T13:43:56.605Z,1.90
2022-11-06T13:46:52.713Z,1.80
2022-11-06T13:49:37.915Z,1.90
2022-11-06T13:52:16.865Z,2.10
2022-11-06T13:57:21.146Z,2.30
2022-11-06T14:00:18.181Z,2.40
2022-11-06T14:03:23.648Z,2.30
2022-11-06T14:05:55.611Z,2.10
2022-11-06T14:08:47.783Z,2.10
2022-11-06T14:11:18.955Z,2.10
2022-11-06T14:14:00.414Z,2.00
2022-11-06T14:16:33.961Z,2.00
2022-11-06T14:19:13.217Z,2.10
2022-11-06T14:21:49.897Z,2.20
2022-11-06T14:24:29.980Z,2.20
2022-11-06T14:26:59.395Z,2.70
2022-11-06T14:29:27.667Z,2.30
2022-11-06T14:32:01.549Z,2.60
2022-11-06T14:34:32.436Z,2.20
2022-11-06T14:37:20.359Z,2.30
2022-11-06T14:39:50.897Z,2.90
2022-11-06T14:42:27.343Z,2.60
2022-11-06T14:45:11.996Z,3.00
2022-11-06T14:47:45.948Z,2.80
2022-11-06T14:50:20.060Z,3.30
2022-11-06T14:52:55.948Z,3.00
2022-11-06T14:55:31.708Z,3.10
2022-11-06T14:58:21.364Z,2.60
2022-11-06T15:01:11.137Z,3.20
2022-11-06T15:03:56.640Z,3.30
2022-11-06T15:06:33.446Z,2.70
2022-11-06T15:09:12.037Z,3.40
2022-11-06T15:11:46.626Z,3.20
2022-11-06T15:14:15.859Z,3.30
2022-11-06T15:16:50.793Z,3.20
2022-11-06T15:19:31.744Z,3.10
2022-11-06T15:22:20.977Z,2.80
2022-11-06T15:27:19.690Z,3.20
2022-11-06T15:29:52.106Z,3.00
2022-11-06T15:32:23.498Z,3.20
2022-11-06T15:35:03.118Z,3.20
2022-11-06T15:37:35.869Z,3.40
2022-11-06T15:40:04.366Z,3.80
2022-11-06T15:42:35.528Z,3.60
2022-11-06T15:45:30.278Z,3.90
2022-11-06T15:48:22.655Z,4.60
2022-11-06T15:50:50.675Z,5.50
2022-11-06T15:53:22.865Z,6.10
2022-11-06T15:56:00.377Z,6.00
2022-11-06T15:58:33.755Z,7.60
2022-11-06T16:01:04.226Z,8.80
2022-11-06T16:03:50.570Z,8.80
2022-11-06T16:06:19.087Z,10.60
2022-11-06T16:08:48.924Z,10.10
2022-11-06T16:11:19.337Z,10.30
2022-11-06T16:13:48.240Z,11.80
2022-11-06T16:16:31.421Z,11.30
2022-11-06T16:18:59.585Z,11.80
2022-11-06T16:21:34.313Z,12.20
2022-11-06T16:24:12.213Z,11.70
2022-11-06T16:26:47.270Z,13.30
2022-11-06T16:29:22.612Z,12.00
2022-11-06T16:32:00.624Z,13.60
2022-11-06T16:34:31.176Z,12.20
2022-11-06T16:37:00.217Z,13.20
2022-11-06T16:39:47.649Z,13.50
2022-11-06T16:42:23.275Z,12.90
2022-11-06T16:45:20.178Z,13.20
2022-11-06T16:48:06.342Z,12.20
2022-11-06T16:50:54.983Z,13.30
2022-11-06T16:53:29.048Z,12.40
2022-11-06T16:56:07.664Z,11.40
2022-11-06T16:59:07.702Z,12.10
2022-11-06T17:01:44.886Z,11.90
2022-11-06T17:04:26.212Z,10.00
2022-11-06T17:06:54.650Z,10.10
2022-11-06T17:09:22.545Z,10.90
2022-11-06T17:11:54.044Z,10.60
2022-11-06T17:14:23.457Z,9.90
2022-11-06T17:17:00.826Z,10.70
2022-11-06T17:19:29.790Z,10.20
2022-11-06T17:21:58.204Z,10.30
2022-11-06T17:24:41.520Z,10.30
2022-11-06T17:27:09.557Z,9.60
2022-11-06T17:29:38.755Z,10.00
2022-11-06T17:32:06.568Z,11.30
2022-11-06T17:34:34.930Z,10.30
2022-11-06T17:37:02.729Z,9.70
2022-11-06T17:39:31.180Z,10.40
2022-11-06T17:41:59.024Z,9.50
2022-11-06T17:44:26.779Z,10.10
2022-11-06T17:46:54.772Z,10.10
2022-11-06T17:49:22.533Z,9.10
2022-11-06T17:51:50.343Z,9.30
2022-11-06T17:54:20.300Z,10.20
2022-11-06T17:56:49.971Z,9.80
2022-11-06T17:59:18.455Z,9.10
2022-11-06T18:01:53.073Z,9.90
2022-11-06T18:04:25.670Z,10.00
2022-11-06T18:06:54.551Z,9.50
2022-11-06T18:09:23.493Z,10.00
2022-11-06T18:11:53.049Z,8.70
2022-11-06T18:14:22.847Z,10.40
2022-11-06T18:16:51.485Z,10.20
2022-11-06T18:19:22.705Z,10.40
2022-11-06T18:21:51.987Z,10.40
2022-11-06T18:26:47.488Z,10.30
2022-11-06T18:29:15.516Z,10.10
2022-11-06T18:31:43.439Z,10.40
2022-11-06T18:34:18.592Z,11.70
2022-11-06T18:36:51.572Z,11.00
2022-11-06T18:39:19.777Z,10.70
2022-11-06T18:41:47.619Z,11.00
2022-11-06T18:44:17.420Z,11.80
2022-11-06T18:46:46.622Z,11.90
2022-11-06T18:49:14.488Z,12.10
2022-11-06T18:51:42.747Z,12.50
2022-11-06T18:54:12.038Z,12.20
2022-11-06T18:56:40.021Z,11.60
2022-11-06T18:59:13.062Z,12.70
2022-11-06T19:01:41.150Z,12.40
2022-11-06T19:04:10.800Z,12.50
2022-11-06T19:06:40.283Z,11.90
2022-11-06T19:09:09.613Z,11.70
2022-11-06T19:11:37.784Z,12.00
2022-11-06T19:14:05.957Z,13.20
2022-11-06T19:16:33.881Z,12.70
2022-11-06T19:21:36.356Z,13.30
2022-11-06T19:24:05.582Z,13.60
2022-11-06T19:26:36.110Z,14.30
2022-11-06T19:29:08.595Z,14.40
2022-11-06T19:31:37.891Z,12.50
2022-11-06T19:34:07.925Z,13.30
2022-11-06T19:36:36.143Z,12.70
2022-11-06T19:39:05.010Z,14.40
2022-11-06T19:41:33.236Z,13.50
2022-11-06T19:44:01.119Z,12.40
2022-11-06T19:46:35.201Z,13.10
2022-11-06T19:49:05.857Z,12.80
2022-11-06T19:51:34.383Z,14.50
2022-11-06T19:54:02.432Z,14.90
2022-11-06T19:56:30.469Z,16.10
2022-11-06T19:58:58.408Z,15.50
2022-11-06T20:01:26.337Z,14.70
2022-11-06T20:03:54.196Z,15.10
2022-11-06T20:06:22.929Z,14.30
2022-11-06T20:08:51.083Z,15.80
2022-11-06T20:11:18.948Z,16.00
2022-11-06T20:13:47.129Z,14.80
2022-11-06T20:16:20.155Z,13.80
2022-11-06T20:18:52.720Z,14.80
2022-11-06T20:21:21.408Z,16.20
2022-11-06T20:23:49.746Z,15.60
2022-11-06T20:26:17.754Z,16.30
2022-11-06T20:28:48.654Z,15.30
2022-11-06T20:31:19.449Z,14.90
2022-11-06T20:33:48.090Z,15.90
2022-11-06T20:36:23.469Z,17.60
2022-11-06T20:38:58.055Z,15.00
2022-11-06T20:41:27.044Z,17.90
2022-11-06T20:43:55.555Z,17.60
2022-11-06T20:46:24.177Z,17.50
2022-11-06T20:48:52.345Z,16.70
2022-11-06T20:51:23.194Z,17.70
2022-11-06T20:53:52.034Z,14.60
2022-11-06T20:56:22.694Z,16.40
2022-11-06T20:58:50.495Z,16.20
2022-11-06T21:01:21.669Z,17.60
2022-11-06T21:03:50.887Z,17.20
2022-11-06T21:06:20.574Z,16.90
2022-11-06T21:08:48.979Z,18.10
2022-11-06T21:11:19.773Z,17.60
2022-11-06T21:13:52.198Z,18.40
2022-11-06T21:16:25.916Z,17.10
2022-11-06T21:18:54.451Z,17.30
2022-11-06T21:21:25.041Z,18.20
2022-11-06T21:23:54.174Z,16.80
2022-11-06T21:28:50.861Z,17.90
2022-11-06T21:31:21.356Z,20.10
2022-11-06T21:33:50.994Z,16.90
2022-11-06T21:36:27.609Z,16.30
2022-11-06T21:38:59.018Z,17.80
2022-11-06T21:41:29.414Z,18.60
2022-11-06T21:43:57.591Z,20.40
2022-11-06T21:46:26.661Z,20.40
2022-11-06T21:48:54.958Z,18.80
2022-11-06T21:51:26.906Z,20.80
2022-11-06T21:54:14.446Z,21.50
2022-11-06T21:56:43.231Z,20.50
2022-11-06T21:59:16.055Z,19.70
2022-11-06T22:01:44.304Z,19.20
2022-11-06T22:04:12.987Z,20.00
2022-11-06T22:06:42.889Z,21.70
2022-11-06T22:09:13.067Z,21.40
2022-11-06T22:11:43.498Z,18.70
2022-11-06T22:14:13.838Z,21.60
2022-11-06T22:16:44.369Z,19.80
2022-11-06T22:19:13.603Z,22.90
2022-11-06T22:24:12.683Z,22.20
2022-11-06T22:26:40.813Z,23.20
2022-11-06T22:29:12.578Z,22.40
2022-11-06T22:31:40.961Z,24.10
2022-11-06T22:34:10.964Z,23.60
2022-11-06T22:36:39.583Z,23.00
2022-11-06T22:39:09.188Z,23.50
2022-11-06T22:41:37.863Z,22.60
2022-11-06T22:44:06.650Z,24.00
2022-11-06T22:46:35.143Z,23.70
2022-11-06T22:49:04.252Z,24.10
2022-11-06T22:51:32.981Z,23.30
2022-11-06T22:54:02.442Z,22.90
2022-11-06T22:56:31.317Z,22.00
2022-11-06T22:59:09.302Z,22.20
2022-11-06T23:01:42.218Z,22.60
2022-11-06T23:04:16.130Z,23.20
2022-11-06T23:06:45.301Z,22.90
2022-11-06T23:09:14.104Z,21.80
2022-11-06T23:11:44.705Z,23.30
2022-11-06T23:14:12.913Z,23.10
2022-11-06T23:17:00.902Z,23.50
2022-11-06T23:19:31.266Z,22.30
2022-11-06T23:22:18.228Z,21.50
2022-11-06T23:24:46.606Z,23.20
2022-11-06T23:27:14.346Z,21.80
2022-11-06T23:29:42.113Z,22.80
2022-11-06T23:32:10.101Z,22.20
2022-11-06T23:34:37.788Z,19.60
2022-11-06T23:37:05.637Z,19.70
2022-11-06T23:39:33.613Z,21.00
2022-11-06T23:42:01.325Z,20.40
2022-11-06T23:44:47.701Z,19.50
2022-11-06T23:47:15.911Z,19.70
2022-11-06T23:49:43.701Z,21.30
2022-11-06T23:52:11.456Z,20.80
2022-11-06T23:54:39.484Z,21.30
2022-11-06T23:57:08.410Z,21.20
2022-11-06T23:59:36.389Z,22.00
